Time;durP1;ratioP1;P1;durP2;ratioP2;P2;SDS_P1;SDS_P2;PMS_P1;PMS_P2;Temp;Humidity;BMP_temperature;BMP_pressure;BME280_temperature;BME280_humidity;BME280_pressure;Samples;Min_cycle;Max_cycle;Signal;HPM_P1;HPM_P2
2022/08/10 00:01:38;;;;;;;5.93;4.00;;;18.00;87.80;;;;;;5088682;28;20060;-60
2022/08/10 00:04:04;;;;;;;7.13;4.07;;;17.90;88.10;;;;;;5096418;28;20032;-60
2022/08/10 00:06:30;;;;;;;4.47;3.90;;;17.80;88.20;;;;;;5076876;28;20060;-60
2022/08/10 00:08:56;;;;;;;7.47;4.25;;;17.60;88.80;;;;;;5076296;28;20072;-60
2022/08/10 00:11:22;;;;;;;7.90;4.50;;;17.40;88.60;;;;;;5086082;28;20032;-60
2022/08/10 00:13:47;;;;;;;6.22;4.15;;;17.40;90.00;;;;;;5085698;28;20098;-60
2022/08/10 00:16:13;;;;;;;5.25;3.90;;;17.30;90.20;;;;;;5079316;28;20039;-60
2022/08/10 00:18:39;;;;;;;6.15;4.13;;;17.30;90.30;;;;;;5079341;28;20044;-60
2022/08/10 00:21:06;;;;;;;6.28;4.25;;;17.40;89.90;;;;;;5081412;28;20052;-60
2022/08/10 00:23:32;;;;;;;6.95;4.15;;;17.30;90.00;;;;;;5075790;28;20576;-60
2022/08/10 00:25:58;;;;;;;16.90;4.20;;;17.30;90.10;;;;;;5085025;28;20032;-60
2022/08/10 00:28:24;;;;;;;9.38;4.40;;;17.20;90.00;;;;;;5088892;28;20575;-60
2022/08/10 00:30:50;;;;;;;9.40;4.50;;;17.20;90.50;;;;;;5087076;28;20031;-60
2022/08/10 00:33:16;;;;;;;8.00;4.82;;;17.10;90.40;;;;;;5079152;28;20265;-60
2022/08/10 00:35:41;;;;;;;8.05;4.38;;;17.10;91.00;;;;;;5093171;28;20032;-60
2022/08/10 00:38:07;;;;;;;4.65;4.15;;;17.00;90.90;;;;;;5088433;28;20119;-60
2022/08/10 00:40:33;;;;;;;11.13;4.25;;;17.10;90.90;;;;;;5086323;28;20030;-60
2022/08/10 00:42:58;;;;;;;5.28;4.40;;;17.10;91.30;;;;;;5090762;28;20024;-60
2022/08/10 00:45:24;;;;;;;6.60;4.35;;;17.00;91.50;;;;;;5083999;28;20024;-60
2022/08/10 00:47:49;;;;;;;10.07;4.38;;;16.90;91.50;;;;;;5087703;28;20101;-60
2022/08/10 00:50:17;;;;;;;9.10;4.60;;;16.90;91.80;;;;;;5075791;28;20081;-60
2022/08/10 00:52:44;;;;;;;6.90;4.80;;;16.90;91.80;;;;;;5076148;28;20540;-60
2022/08/10 00:55:10;;;;;;;8.15;4.47;;;16.80;91.90;;;;;;5082893;28;20036;-60
2022/08/10 00:57:38;;;;;;;6.93;4.10;;;16.60;92.40;;;;;;5090390;28;20938;-60
2022/08/10 01:00:05;;;;;;;7.45;4.90;;;16.50;93.00;;;;;;5084274;28;20030;-60
2022/08/10 01:02:31;;;;;;;5.82;4.47;;;16.40;93.40;;;;;;5069409;28;20119;-60
2022/08/10 01:05:03;;;;;;;6.25;4.78;;;16.40;93.00;;;;;;5086354;28;20402;-60
2022/08/10 01:07:52;;;;;;;5.85;4.50;;;16.40;93.40;;;;;;5077566;28;20433;-60
2022/08/10 01:10:47;;;;;;;8.52;4.43;;;16.40;93.40;;;;;;5082617;28;20031;-60
2022/08/10 01:13:19;;;;;;;7.57;4.55;;;16.30;93.60;;;;;;5062459;28;20051;-60
2022/08/10 01:16:10;;;;;;;7.22;4.70;;;16.30;93.70;;;;;;5088946;28;20035;-60
2022/08/10 01:19:00;;;;;;;6.20;4.78;;;16.20;93.90;;;;;;5082451;28;20044;-60
2022/08/10 01:21:41;;;;;;;7.78;4.80;;;16.20;93.80;;;;;;5086462;28;20036;-60
2022/08/10 01:24:09;;;;;;;8.15;4.63;;;16.30;94.30;;;;;;5086326;28;20040;-60
2022/08/10 01:26:48;;;;;;;7.35;4.97;;;16.30;94.20;;;;;;5088399;28;20020;-60
2022/08/10 01:29:54;;;;;;;5.50;4.72;;;16.30;94.10;;;;;;5085656;28;20032;-60
2022/08/10 01:32:58;;;;;;;7.13;4.90;;;16.20;94.80;;;;;;5102373;28;20409;-60
2022/08/10 01:35:27;;;;;;;9.38;4.95;;;16.00;95.10;;;;;;5088997;28;20024;-60
2022/08/10 01:38:23;;;;;;;10.93;5.33;;;15.90;95.50;;;;;;5087898;28;20027;-60
2022/08/10 01:41:05;;;;;;;6.85;5.22;;;15.90;96.00;;;;;;5069370;28;20700;-60
2022/08/10 01:43:35;;;;;;;7.05;4.90;;;15.80;96.10;;;;;;5082962;28;20117;-60
2022/08/10 01:46:03;;;;;;;7.28;4.93;;;15.70;96.60;;;;;;5085216;28;20032;-60
2022/08/10 01:48:35;;;;;;;8.25;5.43;;;15.60;96.90;;;;;;5080875;28;20397;-60
2022/08/10 01:51:07;;;;;;;9.27;5.22;;;15.60;97.20;;;;;;5092546;28;20031;-60
2022/08/10 01:53:53;;;;;;;7.40;5.55;;;15.50;97.60;;;;;;5085909;28;20051;-60
2022/08/10 01:56:21;;;;;;;7.00;5.38;;;15.50;97.80;;;;;;5089053;28;20062;-61
2022/08/10 01:59:00;;;;;;;8.38;5.22;;;15.40;98.10;;;;;;5087419;28;20032;-60
2022/08/10 02:01:31;;;;;;;7.10;5.47;;;15.40;98.60;;;;;;5086406;28;20036;-60
2022/08/10 02:04:02;;;;;;;7.18;5.60;;;15.40;98.70;;;;;;5092042;28;20044;-60
2022/08/10 02:06:30;;;;;;;8.52;5.53;;;15.30;98.90;;;;;;5090692;28;20055;-60
2022/08/10 02:08:59;;;;;;;9.20;5.90;;;15.10;99.90;;;;;;5077338;28;20029;-60
2022/08/10 02:11:28;;;;;;;7.22;5.78;;;14.90;99.90;;;;;;5078272;28;20033;-60
2022/08/10 02:13:57;;;;;;;8.82;5.95;;;14.80;99.90;;;;;;5077933;28;20025;-60
2022/08/10 02:16:24;;;;;;;8.90;5.97;;;14.70;99.90;;;;;;5079088;28;20052;-60
2022/08/10 02:18:52;;;;;;;8.65;6.00;;;14.60;99.90;;;;;;5085921;28;20048;-60
2022/08/10 02:21:19;;;;;;;11.05;5.75;;;14.60;99.90;;;;;;5080150;28;20029;-60
2022/08/10 02:23:45;;;;;;;10.68;6.05;;;14.60;99.90;;;;;;5074984;28;20111;-60
2022/08/10 02:26:12;;;;;;;8.70;6.35;;;14.70;99.90;;;;;;5071269;28;20039;-60
2022/08/10 02:28:40;;;;;;;7.13;5.90;;;14.80;99.90;;;;;;5070999;28;20606;-60
2022/08/10 02:31:12;;;;;;;8.18;5.85;;;14.80;99.90;;;;;;5086506;28;20020;-60
2022/08/10 02:33:41;;;;;;;8.35;5.53;;;14.80;99.90;;;;;;5083899;28;20642;-60
2022/08/10 02:36:10;;;;;;;8.43;5.72;;;14.80;99.90;;;;;;5088954;28;20096;-60
2022/08/10 02:38:42;;;;;;;9.65;5.90;;;14.80;99.90;;;;;;5093124;28;20043;-60
2022/08/10 02:41:39;;;;;;;10.07;5.80;;;14.80;99.90;;;;;;5091542;28;20028;-60
2022/08/10 02:44:12;;;;;;;7.25;5.95;;;14.70;99.90;;;;;;5078850;28;20516;-60
2022/08/10 02:46:54;;;;;;;7.82;6.03;;;14.50;99.90;;;;;;5094187;28;20027;-60
2022/08/10 02:49:27;;;;;;;8.20;6.47;;;14.60;99.90;;;;;;5084700;28;20108;-60
2022/08/10 02:52:08;;;;;;;7.97;5.88;;;14.50;99.90;;;;;;5093659;28;20027;-60
2022/08/10 02:54:38;;;;;;;8.05;6.22;;;14.50;99.90;;;;;;5092249;28;20467;-60
2022/08/10 02:57:12;;;;;;;12.43;6.38;;;14.40;99.90;;;;;;5085006;28;20035;-60
2022/08/10 02:59:45;;;;;;;8.27;6.28;;;14.30;99.90;;;;;;5078650;28;20485;-60
2022/08/10 03:02:20;;;;;;;10.02;6.07;;;14.20;99.90;;;;;;5093989;28;20521;-60
2022/08/10 03:04:52;;;;;;;8.50;6.22;;;14.20;99.90;;;;;;5090899;28;20147;-60
2022/08/10 03:07:21;;;;;;;9.45;6.10;;;14.30;99.90;;;;;;5092721;28;20035;-60
2022/08/10 03:09:48;;;;;;;8.45;5.93;;;14.30;99.90;;;;;;5094113;28;20036;-60
2022/08/10 03:12:15;;;;;;;8.20;5.97;;;14.20;99.90;;;;;;5093746;28;20394;-60
2022/08/10 03:14:43;;;;;;;9.05;6.30;;;14.10;99.90;;;;;;5096097;28;20650;-60
2022/08/10 03:17:10;;;;;;;7.78;6.13;;;14.10;99.90;;;;;;5089826;28;20103;-61
2022/08/10 03:19:37;;;;;;;8.10;6.50;;;14.10;99.90;;;;;;5091377;28;20081;-60
2022/08/10 03:22:04;;;;;;;8.77;6.70;;;14.20;99.90;;;;;;5095221;28;20035;-60
2022/08/10 03:24:32;;;;;;;8.50;6.40;;;14.20;99.90;;;;;;5090620;28;20099;-60
2022/08/10 03:26:58;;;;;;;9.40;6.40;;;14.10;99.90;;;;;;5089845;28;20030;-60
2022/08/10 03:29:25;;;;;;;11.75;6.28;;;14.00;99.90;;;;;;5091899;28;20097;-60
2022/08/10 03:31:51;;;;;;;8.60;5.82;;;14.00;99.90;;;;;;5085529;28;20032;-60
2022/08/10 03:34:18;;;;;;;10.07;6.60;;;13.90;99.90;;;;;;5071613;28;20044;-60
2022/08/10 03:36:45;;;;;;;9.77;7.18;;;13.90;99.90;;;;;;5075527;28;20622;-60
2022/08/10 03:39:12;;;;;;;13.18;6.30;;;14.00;99.90;;;;;;5093911;28;20482;-60
2022/08/10 03:41:43;;;;;;;9.50;6.60;;;14.00;99.90;;;;;;5086254;28;20040;-60
2022/08/10 03:44:12;;;;;;;9.82;6.53;;;13.90;99.90;;;;;;5072123;28;20066;-60
2022/08/10 03:46:41;;;;;;;11.93;6.53;;;13.90;99.90;;;;;;5075516;28;20023;-60
2022/08/10 03:49:08;;;;;;;11.38;6.45;;;13.80;99.90;;;;;;5071577;28;20040;-60
2022/08/10 03:51:35;;;;;;;8.32;6.80;;;13.80;99.90;;;;;;5082313;28;20047;-60
2022/08/10 03:54:02;;;;;;;10.88;6.88;;;13.70;99.90;;;;;;5071334;28;20029;-60
2022/08/10 03:56:29;;;;;;;9.57;7.00;;;13.70;99.90;;;;;;5081825;28;20040;-60
2022/08/10 03:58:56;;;;;;;10.25;6.95;;;13.70;99.90;;;;;;5093394;28;20067;-60
2022/08/10 04:01:22;;;;;;;9.43;6.72;;;13.80;99.90;;;;;;5093620;28;20105;-60
2022/08/10 04:03:48;;;;;;;9.80;6.53;;;13.80;99.90;;;;;;5091999;28;20047;-60
2022/08/10 04:06:14;;;;;;;10.13;6.25;;;13.80;99.90;;;;;;5093098;28;20024;-60
2022/08/10 04:08:43;;;;;;;10.30;6.40;;;13.90;99.90;;;;;;5083116;28;20032;-60
2022/08/10 04:11:12;;;;;;;8.13;6.28;;;13.90;99.90;;;;;;5082542;28;20028;-60
2022/08/10 04:13:38;;;;;;;11.02;6.60;;;13.90;99.90;;;;;;5092160;28;20482;-60
2022/08/10 04:16:05;;;;;;;8.93;6.75;;;13.80;99.90;;;;;;5088618;28;20107;-60
2022/08/10 04:18:34;;;;;;;11.00;6.88;;;13.70;99.90;;;;;;5095407;28;20054;-61
2022/08/10 04:21:11;;;;;;;9.68;6.70;;;13.70;99.90;;;;;;5096540;28;20107;-60
2022/08/10 04:23:42;;;;;;;7.22;6.10;;;13.60;99.90;;;;;;5090088;28;20134;-62
2022/08/10 04:26:09;;;;;;;10.52;7.07;;;13.50;99.90;;;;;;5089610;28;20028;-61
2022/08/10 04:28:35;;;;;;;10.60;7.18;;;13.40;99.90;;;;;;5086133;28;20574;-62
2022/08/10 04:31:03;;;;;;;10.38;6.95;;;13.40;99.90;;;;;;5081981;28;20056;-60
2022/08/10 04:33:31;;;;;;;10.00;6.93;;;13.40;99.90;;;;;;5090332;28;20036;-60
2022/08/10 04:35:58;;;;;;;9.38;7.18;;;13.30;99.90;;;;;;5090812;28;20466;-60
2022/08/10 04:38:26;;;;;;;11.10;6.88;;;13.40;99.90;;;;;;5089178;28;20032;-60
2022/08/10 04:40:52;;;;;;;10.95;7.88;;;13.40;99.90;;;;;;5090026;28;20028;-60
2022/08/10 04:43:18;;;;;;;8.85;7.00;;;13.60;99.90;;;;;;5089865;28;20387;-60
2022/08/10 04:45:44;;;;;;;10.05;7.00;;;13.70;99.90;;;;;;5091645;28;20053;-60
2022/08/10 04:48:10;;;;;;;11.82;6.65;;;13.70;99.90;;;;;;5089451;28;20082;-60
2022/08/10 04:50:36;;;;;;;10.07;6.35;;;13.70;99.90;;;;;;5090458;28;20037;-60
2022/08/10 04:53:01;;;;;;;7.35;6.22;;;13.70;99.90;;;;;;5090254;28;20040;-60
2022/08/10 04:55:27;;;;;;;10.70;6.35;;;13.80;99.90;;;;;;5090267;28;20110;-62
2022/08/10 04:57:53;;;;;;;13.77;7.38;;;13.90;99.90;;;;;;5088741;28;20062;-62
2022/08/10 05:00:18;;;;;;;8.85;5.90;;;14.10;99.90;;;;;;5090329;28;20641;-62
2022/08/10 05:02:45;;;;;;;8.25;6.38;;;14.30;99.90;;;;;;5082538;28;20036;-60
2022/08/10 05:05:11;;;;;;;8.73;6.47;;;14.40;99.90;;;;;;5084292;28;20033;-60
2022/08/10 05:07:37;;;;;;;8.43;6.47;;;14.60;99.90;;;;;;5087518;28;20032;-60
2022/08/10 05:10:03;;;;;;;9.15;6.20;;;14.80;99.90;;;;;;5087416;28;20058;-60
2022/08/10 05:12:29;;;;;;;7.22;6.10;;;14.90;99.90;;;;;;5091959;28;20656;-60
2022/08/10 05:14:55;;;;;;;8.68;6.68;;;15.00;99.90;;;;;;5089669;28;20055;-60
2022/08/10 05:17:21;;;;;;;8.25;6.53;;;15.10;99.90;;;;;;5096331;28;20635;-60
2022/08/10 05:19:47;;;;;;;9.82;7.05;;;15.10;99.90;;;;;;5087934;28;20071;-62
2022/08/10 05:22:12;;;;;;;9.88;6.95;;;15.00;99.90;;;;;;5089273;28;20040;-62
2022/08/10 05:24:38;;;;;;;10.73;5.90;;;15.10;99.90;;;;;;5086534;28;20649;-62
2022/08/10 05:27:05;;;;;;;9.65;5.95;;;15.20;99.90;;;;;;5090771;28;20032;-61
2022/08/10 05:29:31;;;;;;;7.93;6.65;;;15.40;99.90;;;;;;5087742;28;20032;-62
2022/08/10 05:31:58;;;;;;;10.32;6.43;;;15.60;99.90;;;;;;5089625;28;20027;-62
2022/08/10 05:34:26;;;;;;;13.15;6.68;;;15.70;99.90;;;;;;5089832;28;20028;-62
2022/08/10 05:36:56;;;;;;;8.57;6.57;;;15.70;99.90;;;;;;5088830;28;20494;-62
2022/08/10 05:39:24;;;;;;;8.83;6.13;;;15.80;99.90;;;;;;5088702;28;20528;-62
2022/08/10 05:41:51;;;;;;;9.05;6.43;;;15.80;99.90;;;;;;5088756;28;20601;-62
2022/08/10 05:44:19;;;;;;;7.95;6.15;;;15.90;99.90;;;;;;5089700;28;20113;-62
2022/08/10 05:46:44;;;;;;;10.30;5.47;;;16.20;99.90;;;;;;5088683;28;20394;-62
2022/08/10 05:49:10;;;;;;;12.65;5.47;;;16.40;99.90;;;;;;5088639;28;20051;-62
2022/08/10 05:51:35;;;;;;;8.05;4.90;;;16.70;99.90;;;;;;5087802;28;20228;-62
2022/08/10 05:54:01;;;;;;;7.57;4.40;;;16.90;99.90;;;;;;5095188;28;20028;-62
2022/08/10 05:56:27;;;;;;;7.10;4.50;;;17.20;99.90;;;;;;5088699;28;20024;-59
2022/08/10 05:58:53;;;;;;;8.43;4.38;;;17.50;99.90;;;;;;5081992;28;20818;-59
2022/08/10 06:01:23;;;;;;;10.68;4.40;;;17.70;99.90;;;;;;5081959;28;20024;-59
2022/08/10 06:03:58;;;;;;;6.27;4.10;;;18.00;99.90;;;;;;5087782;28;20694;-59
2022/08/10 06:06:26;;;;;;;7.55;3.92;;;18.20;99.90;;;;;;5090366;28;20647;-59
2022/08/10 06:08:53;;;;;;;5.70;4.00;;;18.50;99.90;;;;;;5078878;28;20019;-61
2022/08/10 06:11:20;;;;;;;4.82;3.90;;;18.60;99.20;;;;;;5069354;28;20088;-59
2022/08/10 06:16:34;;;;;;;5.38;3.70;;;18.90;98.20;;;;;;5091040;28;20536;-63
2022/08/10 06:19:00;;;;;;;4.82;3.85;;;19.10;97.40;;;;;;5093697;28;20044;-60
2022/08/10 06:21:27;;;;;;;7.88;4.07;;;19.20;96.90;;;;;;5096604;28;20024;-60
2022/08/10 06:23:55;;;;;;;6.88;3.63;;;19.20;96.90;;;;;;5088112;28;20166;-60
2022/08/10 06:26:21;;;;;;;5.38;3.72;;;19.40;96.10;;;;;;5092647;28;20038;-60
2022/08/10 06:29:08;;;;;;;6.93;4.00;;;19.60;95.80;;;;;;5090352;28;20103;-60
2022/08/10 06:31:39;;;;;;;5.03;3.58;;;19.60;95.30;;;;;;5086350;28;20492;-61
2022/08/10 06:34:06;;;;;;;;;;;19.70;95.50;;;;;;5085693;28;20020;-60
2022/08/10 06:36:33;;;;;;;4.15;3.42;;;19.80;94.60;;;;;;5082186;28;19962;-60
2022/08/10 06:38:59;;;;;;;9.25;3.95;;;19.80;94.30;;;;;;5075345;28;20020;-60
2022/08/10 06:41:29;;;;;;;4.47;3.67;;;19.80;94.20;;;;;;5097065;28;20085;-60
2022/08/10 06:43:59;;;;;;;8.80;4.22;;;19.90;94.00;;;;;;5094319;28;20027;-61
2022/08/10 06:46:26;;;;;;;4.70;3.70;;;20.00;94.00;;;;;;5091193;28;20424;-60
2022/08/10 06:48:58;;;;;;;7.57;3.58;;;20.30;93.70;;;;;;5090265;28;20063;-60
2022/08/10 06:51:28;;;;;;;4.57;3.55;;;20.50;92.50;;;;;;5092812;28;20514;-63
2022/08/10 06:53:58;;;;;;;7.78;3.58;;;20.70;92.60;;;;;;5089316;28;20660;-61
2022/08/10 06:56:26;;;;;;;4.88;3.55;;;20.80;91.70;;;;;;5088746;28;20043;-62
2022/08/10 06:58:59;;;;;;;7.13;3.53;;;20.90;91.90;;;;;;5091212;28;20073;-62
2022/08/10 07:01:33;;;;;;;9.05;3.65;;;20.90;91.70;;;;;;5088851;28;20039;-64
2022/08/10 07:04:14;;;;;;;4.25;3.42;;;21.10;91.80;;;;;;5086285;28;20028;-63
2022/08/10 07:06:44;;;;;;;3.55;3.17;;;21.30;91.40;;;;;;5087079;28;20119;-62
2022/08/10 07:09:13;;;;;;;10.98;3.65;;;21.50;90.80;;;;;;5090464;28;20020;-62
2022/08/10 07:11:42;;;;;;;4.45;3.55;;;21.60;90.50;;;;;;5094884;28;20023;-62
2022/08/10 07:14:11;;;;;;;7.30;2.97;;;21.60;89.50;;;;;;5074472;28;20114;-62
2022/08/10 07:16:41;;;;;;;4.40;3.40;;;21.40;90.50;;;;;;5088069;28;20080;-62
2022/08/10 07:19:11;;;;;;;6.07;3.33;;;21.60;90.30;;;;;;5091627;28;20412;-62
2022/08/10 07:21:40;;;;;;;6.80;3.67;;;21.70;90.00;;;;;;5091185;28;20274;-62
2022/08/10 07:24:09;;;;;;;6.82;3.05;;;21.90;88.80;;;;;;5092411;28;20169;-62
2022/08/10 07:26:38;;;;;;;5.93;3.20;;;22.10;87.20;;;;;;5089447;28;20024;-63
2022/08/10 07:29:05;;;;;;;7.50;3.15;;;22.10;86.80;;;;;;5090850;28;20108;-62
2022/08/10 07:31:32;;;;;;;9.07;3.03;;;22.30;87.80;;;;;;5103385;28;20172;-63
2022/08/10 07:34:01;;;;;;;4.55;3.03;;;22.50;85.00;;;;;;5086702;28;20032;-66
2022/08/10 07:36:29;;;;;;;6.07;3.30;;;22.50;85.60;;;;;;5090149;28;20505;-63
2022/08/10 07:38:57;;;;;;;4.95;3.30;;;22.80;84.30;;;;;;5086256;28;20060;-62
2022/08/10 07:41:29;;;;;;;4.60;3.17;;;23.00;81.60;;;;;;5072621;28;20031;-63
2022/08/10 07:43:56;;;;;;;3.80;2.80;;;23.00;80.50;;;;;;5076205;28;20031;-63
2022/08/10 07:46:25;;;;;;;4.80;2.92;;;23.10;79.60;;;;;;5086180;28;20036;-63
2022/08/10 07:49:01;;;;;;;10.43;3.00;;;23.00;80.10;;;;;;5090377;28;20036;-63
2022/08/10 07:51:30;;;;;;;4.45;2.90;;;23.10;78.80;;;;;;5091098;28;20036;-63
2022/08/10 07:53:59;;;;;;;6.57;3.38;;;23.30;78.00;;;;;;5090344;28;20068;-62
2022/08/10 07:56:27;;;;;;;5.10;3.13;;;23.40;77.00;;;;;;5090532;28;20024;-63
2022/08/10 07:59:15;;;;;;;4.32;2.80;;;23.60;77.70;;;;;;5082522;28;20285;-62
2022/08/10 08:01:47;;;;;;;10.85;2.97;;;23.80;76.70;;;;;;5089579;28;20108;-62
2022/08/10 08:04:13;;;;;;;9.30;2.92;;;23.80;71.70;;;;;;5091613;28;20028;-63
2022/08/10 08:06:41;;;;;;;5.07;2.70;;;23.90;73.30;;;;;;5090089;28;20044;-62
2022/08/10 08:09:09;;;;;;;7.32;2.70;;;23.80;70.50;;;;;;5091482;28;20115;-62
2022/08/10 08:11:36;;;;;;;5.03;2.90;;;23.90;74.50;;;;;;5091425;28;20032;-63
2022/08/10 08:14:04;;;;;;;4.78;2.88;;;24.00;69.80;;;;;;5090392;28;20032;-62
2022/08/10 08:16:31;;;;;;;14.52;2.85;;;23.90;68.00;;;;;;5088261;28;20024;-63
2022/08/10 08:18:58;;;;;;;3.97;2.67;;;23.80;69.80;;;;;;5090435;28;20056;-63
2022/08/10 08:21:26;;;;;;;6.95;2.97;;;23.90;69.00;;;;;;5091292;28;20028;-63
2022/08/10 08:23:53;;;;;;;3.30;2.22;;;24.00;66.30;;;;;;5090500;28;20127;-63
2022/08/10 08:26:21;;;;;;;4.78;2.42;;;24.00;66.90;;;;;;5089874;28;20035;-63
2022/08/10 08:28:49;;;;;;;3.22;2.47;;;24.10;66.60;;;;;;5090186;28;20111;-63
2022/08/10 08:31:16;;;;;;;3.83;2.63;;;24.20;64.60;;;;;;5091179;28;20024;-62
2022/08/10 08:33:44;;;;;;;6.18;2.67;;;24.20;66.40;;;;;;5089010;28;20438;-62
2022/08/10 08:36:13;;;;;;;4.70;2.60;;;24.40;65.00;;;;;;5089223;28;20024;-63
2022/08/10 08:38:41;;;;;;;13.68;2.90;;;24.50;64.20;;;;;;5090936;28;20488;-63
2022/08/10 08:41:12;;;;;;;3.90;2.80;;;24.50;66.20;;;;;;5090011;28;20149;-63
2022/08/10 08:44:14;;;;;;;4.25;2.60;;;24.70;64.20;;;;;;5090207;28;20042;-63
2022/08/10 08:46:49;;;;;;;3.70;2.40;;;24.80;64.50;;;;;;5082711;28;20032;-63
2022/08/10 08:49:59;;;;;;;4.07;2.80;;;24.70;62.20;;;;;;5090863;28;20385;-62
2022/08/10 08:52:49;;;;;;;7.33;2.83;;;24.60;63.10;;;;;;5084629;28;20036;-63
2022/08/10 08:55:37;;;;;;;7.05;3.20;;;24.70;63.30;;;;;;5089323;28;20539;-64
2022/08/10 08:58:21;;;;;;;4.13;2.70;;;24.70;64.20;;;;;;5087040;28;20040;-65
2022/08/10 09:01:08;;;;;;;5.45;2.78;;;24.80;63.70;;;;;;5081723;28;20044;-63
2022/08/10 09:04:11;;;;;;;7.20;2.90;;;24.70;61.30;;;;;;5085574;28;20118;-64
2022/08/10 09:07:02;;;;;;;10.02;2.90;;;24.80;62.80;;;;;;5080780;28;20098;-63
2022/08/10 09:09:33;;;;;;;4.60;2.72;;;24.80;63.60;;;;;;5077610;28;20803;-62
2022/08/10 09:12:11;;;;;;;5.78;2.70;;;25.20;63.80;;;;;;5089072;28;20035;-65
2022/08/10 09:15:04;;;;;;;3.88;2.40;;;25.50;60.90;;;;;;5093327;28;20405;-64
2022/08/10 09:17:43;;;;;;;3.22;2.15;;;25.20;58.10;;;;;;5071616;28;20043;-62
2022/08/10 09:20:09;;;;;;;3.70;2.10;;;25.30;57.40;;;;;;5087913;28;20508;-64
2022/08/10 09:23:12;;;;;;;3.40;2.42;;;25.20;56.50;;;;;;5101433;28;20115;-66
2022/08/10 09:25:50;;;;;;;6.25;2.40;;;25.20;56.50;;;;;;5090498;28;20044;-63
2022/08/10 09:28:24;;;;;;;5.65;2.80;;;25.10;56.70;;;;;;5088629;28;20035;-64
2022/08/10 09:31:05;;;;;;;16.10;2.80;;;25.40;55.20;;;;;;5091383;28;20028;-63
2022/08/10 09:33:30;;;;;;;;;;;25.30;55.10;;;;;;5085725;28;20047;-63
2022/08/10 09:36:33;;;;;;;7.47;2.10;;;25.40;55.10;;;;;;5081245;28;20423;-63
2022/08/10 09:39:06;;;;;;;10.13;2.35;;;25.80;54.60;;;;;;5091144;28;20026;-64
2022/08/10 09:41:50;;;;;;;6.50;2.60;;;25.70;54.40;;;;;;5089702;28;20119;-65
2022/08/10 09:44:30;;;;;;;4.00;2.28;;;26.00;55.10;;;;;;5089879;28;20081;-65
2022/08/10 09:47:33;;;;;;;6.05;2.53;;;26.20;53.50;;;;;;5091734;28;20039;-65
2022/08/10 09:50:11;;;;;;;11.13;2.33;;;26.50;53.60;;;;;;5069508;28;20505;-64
2022/08/10 09:52:47;;;;;;;7.47;2.28;;;26.20;54.00;;;;;;5081297;28;20102;-65
2022/08/10 09:55:18;;;;;;;4.95;2.30;;;25.80;54.80;;;;;;5083462;28;20051;-65
2022/08/10 09:57:47;;;;;;;5.25;2.53;;;25.70;55.50;;;;;;5085921;28;20024;-63
2022/08/10 10:00:19;;;;;;;6.20;2.60;;;26.00;54.80;;;;;;5081670;28;20035;-65
2022/08/10 10:03:08;;;;;;;3.45;2.40;;;26.00;55.00;;;;;;5092395;28;20039;-63
2022/08/10 10:05:51;;;;;;;3.45;2.25;;;25.70;55.00;;;;;;5089499;28;20050;-65
2022/08/10 10:08:32;;;;;;;4.57;2.58;;;25.50;54.30;;;;;;5089004;28;20043;-64
2022/08/10 10:11:10;;;;;;;15.27;2.60;;;25.80;53.50;;;;;;5089596;28;20042;-65
2022/08/10 10:13:58;;;;;;;6.68;2.45;;;26.20;54.00;;;;;;5086249;28;20037;-65
2022/08/10 10:16:42;;;;;;;5.05;2.30;;;26.20;54.00;;;;;;5081466;28;20070;-65
2022/08/10 10:19:26;;;;;;;8.70;2.42;;;26.10;53.50;;;;;;5086461;28;20044;-63
2022/08/10 10:22:27;;;;;;;3.10;2.47;;;25.80;54.30;;;;;;5069125;28;20414;-65
2022/08/10 10:25:02;;;;;;;;;;;25.70;54.60;;;;;;5066366;28;20424;-65
2022/08/10 10:27:46;;;;;;;7.40;2.50;;;25.30;55.20;;;;;;5087971;28;19908;-65
2022/08/10 10:30:14;;;;;;;3.55;2.60;;;25.10;55.20;;;;;;5088986;28;20043;-65
2022/08/10 10:33:00;;;;;;;6.25;2.88;;;25.00;55.30;;;;;;5087520;28;20066;-65
2022/08/10 10:35:35;;;;;;;4.15;2.50;;;24.90;55.10;;;;;;5079179;28;20038;-65
2022/08/10 10:38:03;;;;;;;6.72;2.50;;;25.10;54.60;;;;;;5067920;28;20029;-64
2022/08/10 10:41:02;;;;;;;5.22;2.20;;;25.10;54.30;;;;;;5090351;28;20024;-64
2022/08/10 10:43:42;;;;;;;2.83;2.20;;;25.50;53.40;;;;;;5090606;28;20032;-64
2022/08/10 10:46:37;;;;;;;4.82;2.17;;;26.10;52.60;;;;;;5091287;28;20031;-64
2022/08/10 10:49:30;;;;;;;2.97;2.00;;;26.60;52.90;;;;;;5089798;28;20032;-64
2022/08/10 10:52:19;;;;;;;4.28;2.55;;;27.20;50.20;;;;;;5081149;28;20040;-65
2022/08/10 10:54:54;;;;;;;5.82;2.08;;;27.30;50.70;;;;;;5089644;28;20028;-65
2022/08/10 10:57:51;;;;;;;6.25;2.25;;;27.00;49.20;;;;;;5093359;28;20093;-65
2022/08/10 11:00:20;;;;;;;4.97;2.10;;;26.20;50.40;;;;;;5062808;28;20385;-65
2022/08/10 11:03:30;;;;;;;5.10;2.40;;;25.90;51.70;;;;;;5092940;28;20036;-65
2022/08/10 11:06:07;;;;;;;12.43;2.38;;;26.40;50.50;;;;;;5041460;28;20136;-66
2022/08/10 11:08:43;;;;;;;4.25;2.30;;;26.50;50.50;;;;;;5086422;28;20040;-65
2022/08/10 11:11:13;;;;;;;3.25;2.40;;;26.40;50.50;;;;;;5079858;28;20028;-62
2022/08/10 11:14:07;;;;;;;5.03;2.60;;;26.50;49.80;;;;;;5077814;28;20032;-62
2022/08/10 11:16:56;;;;;;;3.03;2.20;;;26.30;49.40;;;;;;5094734;28;20055;-63
2022/08/10 11:19:46;;;;;;;4.50;2.88;;;26.70;49.30;;;;;;5101522;28;20047;-62
2022/08/10 11:22:21;;;;;;;7.85;2.50;;;26.90;48.50;;;;;;5083505;28;20024;-62
2022/08/10 11:25:01;;;;;;;4.93;2.50;;;26.60;48.90;;;;;;5075993;28;20028;-63
2022/08/10 11:27:51;;;;;;;6.60;2.20;;;26.60;49.60;;;;;;5103684;28;20029;-62
2022/08/10 11:30:54;;;;;;;4.50;2.20;;;26.80;48.80;;;;;;5093036;28;20097;-63
2022/08/10 11:33:38;;;;;;;5.22;2.30;;;27.10;48.30;;;;;;5089057;28;20146;-62
2022/08/10 11:36:07;;;;;;;6.80;2.35;;;27.10;47.50;;;;;;5081299;28;20078;-62
2022/08/10 11:39:07;;;;;;;5.03;2.30;;;27.30;48.20;;;;;;5093180;28;20839;-63
2022/08/10 11:42:06;;;;;;;3.83;2.20;;;27.50;47.10;;;;;;5092101;28;20748;-64
2022/08/10 11:44:58;;;;;;;4.35;2.30;;;27.70;47.00;;;;;;5089544;28;20055;-63
2022/08/10 11:47:38;;;;;;;3.20;1.83;;;27.90;46.50;;;;;;5091745;28;20052;-62
2022/08/10 11:50:09;;;;;;;6.20;2.40;;;28.10;46.60;;;;;;5090774;28;20209;-62
2022/08/10 11:52:38;;;;;;;8.73;2.42;;;27.90;45.40;;;;;;5091256;28;20035;-64
2022/08/10 11:55:18;;;;;;;3.33;2.15;;;27.50;46.40;;;;;;5089795;28;20421;-63
2022/08/10 11:57:45;;;;;;;4.27;2.40;;;27.90;46.00;;;;;;5091703;28;20478;-63
2022/08/10 12:00:11;;;;;;;6.82;2.05;;;27.50;45.10;;;;;;5090850;28;20101;-63
2022/08/10 12:02:47;;;;;;;3.50;2.40;;;27.40;45.50;;;;;;5091595;28;20424;-64
2022/08/10 12:05:21;;;;;;;2.78;2.00;;;27.40;45.90;;;;;;5070615;28;20032;-64
2022/08/10 12:07:54;;;;;;;3.78;2.17;;;27.70;45.40;;;;;;5088836;28;20040;-63
2022/08/10 12:10:22;;;;;;;5.60;2.17;;;28.10;45.60;;;;;;5090669;28;20024;-63
2022/08/10 12:13:27;;;;;;;2.78;2.10;;;28.20;45.30;;;;;;5091968;28;20039;-65
2022/08/10 12:16:01;;;;;;;6.88;2.20;;;28.20;43.80;;;;;;5091835;28;20424;-67
2022/08/10 12:18:35;;;;;;;4.03;2.28;;;28.10;44.50;;;;;;5093182;28;20136;-63
2022/08/10 12:21:10;;;;;;;3.03;2.00;;;28.40;43.60;;;;;;5089987;28;20107;-64
2022/08/10 12:23:47;;;;;;;3.30;2.28;;;28.50;44.90;;;;;;5089851;28;20051;-63
2022/08/10 12:26:17;;;;;;;3.75;2.05;;;28.50;43.20;;;;;;5090442;28;20038;-63
2022/08/10 12:29:07;;;;;;;7.68;2.00;;;28.50;43.90;;;;;;5091384;28;20028;-63
2022/08/10 12:31:41;;;;;;;4.40;2.20;;;28.60;43.50;;;;;;5078224;28;20103;-64
2022/08/10 12:34:24;;;;;;;3.85;2.28;;;28.30;43.80;;;;;;5079759;28;20043;-63
2022/08/10 12:36:59;;;;;;;7.00;2.28;;;28.40;44.00;;;;;;5095110;28;20032;-63
2022/08/10 12:39:28;;;;;;;4.57;2.22;;;28.50;43.30;;;;;;5092774;28;20027;-63
2022/08/10 12:42:29;;;;;;;3.43;2.00;;;28.50;43.50;;;;;;5097456;28;20024;-67
2022/08/10 12:45:08;;;;;;;3.85;2.42;;;28.50;44.20;;;;;;5078141;28;20304;-67
2022/08/10 12:47:47;;;;;;;3.35;1.98;;;29.20;44.60;;;;;;5090972;28;20072;-63
2022/08/10 12:50:19;;;;;;;9.05;2.17;;;29.50;42.20;;;;;;5092311;28;20035;-63
2022/08/10 12:53:01;;;;;;;2.55;2.10;;;28.90;43.00;;;;;;5089925;28;20039;-63
2022/08/10 12:55:29;;;;;;;4.53;2.20;;;28.90;43.20;;;;;;5092286;28;20126;-64
2022/08/10 12:57:57;;;;;;;3.08;2.13;;;28.90;42.10;;;;;;5089734;28;20060;-65
2022/08/10 13:00:32;;;;;;;2.00;1.80;;;28.90;43.20;;;;;;5090352;28;20052;-62
2022/08/10 13:03:00;;;;;;;2.42;1.85;;;29.00;43.70;;;;;;5092863;28;20028;-64
2022/08/10 13:05:27;;;;;;;3.67;2.10;;;29.20;42.30;;;;;;5089598;28;20043;-62
2022/08/10 13:10:48;;;;;;;5.30;1.97;;;29.00;41.60;;;;;;5091698;28;20067;-61
2022/08/10 13:13:18;;;;;;;4.60;2.28;;;28.90;42.00;;;;;;5070323;28;20036;-61
2022/08/10 13:15:46;;;;;;;2.40;2.20;;;29.10;42.60;;;;;;5086694;28;20387;-61
2022/08/10 13:18:15;;;;;;;4.30;2.20;;;28.70;42.10;;;;;;5068898;28;20052;-61
2022/08/10 13:20:41;;;;;;;6.55;2.20;;;28.70;43.10;;;;;;5080425;28;20135;-62
2022/08/10 13:23:23;;;;;;;3.45;2.28;;;28.90;42.80;;;;;;5070844;28;20707;-61